YYG weather

Charlottetown Airport
Charlottetown, Prince Edward Island, Canada

Public forecast

Using degrees Celsius for public forecast. Weather courtesy of forecast.io.

METAR (pilot weather report)

Retrieved 2019/04/21 15:14 UTC (28 minutes ago):

CYYG 211514Z 18018KT 15SM FEW004 BKN013 OVC220 14/14 A3016 RMK SF1SC6CS1 VIS S 4 SLP218

TAF (pilot weather forecast)

Retrieved 2019/04/21 12:42 UTC (3 hours ago):

TAF CYYG 211140Z 2112/2124 19015KT 5SM BR BKN004 BKN030 OVC270 TEMPO 2112/2113 P6SM NSW SCT004 OVC030 FM211300 19015G25KT P6SM BKN015 TEMPO 2113/2124 4SM -RA -DZ BR OVC007 RMK NXT FCST BY 211800Z